createdAt,value
2023-02-22T00:01:51.527Z,4.57
2023-02-22T00:04:21.468Z,4.30
2023-02-22T00:06:50.022Z,5.55
2023-02-22T00:09:20.834Z,6.25
2023-02-22T00:11:48.898Z,5.38
2023-02-22T00:14:20.499Z,4.13
2023-02-22T00:16:47.757Z,5.85
2023-02-22T00:19:14.761Z,6.55
2023-02-22T00:21:41.757Z,5.05
2023-02-22T00:24:23.403Z,4.00
2023-02-22T00:26:57.636Z,4.22
2023-02-22T00:29:25.472Z,5.30
2023-02-22T00:31:52.688Z,9.30
2023-02-22T00:34:19.780Z,5.03
2023-02-22T00:36:48.390Z,5.07
2023-02-22T00:39:15.706Z,5.18
2023-02-22T00:41:42.949Z,5.25
2023-02-22T00:44:10.012Z,5.00
2023-02-22T00:46:37.008Z,4.40
2023-02-22T00:49:05.395Z,3.72
2023-02-22T00:51:34.089Z,5.72
2023-02-22T00:54:01.492Z,6.28
2023-02-22T00:56:28.852Z,5.03
2023-02-22T00:58:55.884Z,3.85
2023-02-22T01:01:24.437Z,5.70
2023-02-22T01:03:51.845Z,5.30
2023-02-22T01:06:19.464Z,6.63
2023-02-22T01:08:47.850Z,4.60
2023-02-22T01:11:16.784Z,6.35
2023-02-22T01:13:45.501Z,4.68
2023-02-22T01:16:12.736Z,4.30
2023-02-22T01:18:39.882Z,5.25
2023-02-22T01:21:07.007Z,5.85
2023-02-22T01:23:34.019Z,4.85
2023-02-22T01:26:01.044Z,5.95
2023-02-22T01:28:29.271Z,5.90
2023-02-22T01:30:56.913Z,5.35
2023-02-22T01:33:24.476Z,7.95
2023-02-22T01:35:51.647Z,7.18
2023-02-22T01:38:19.099Z,5.70
2023-02-22T01:40:49.379Z,6.35
2023-02-22T01:43:26.446Z,6.22
2023-02-22T01:46:19.099Z,8.05
2023-02-22T01:48:56.455Z,9.52
2023-02-22T01:51:28.235Z,5.32
2023-02-22T01:54:08.900Z,6.07
2023-02-22T01:56:39.656Z,6.53
2023-02-22T01:59:09.777Z,5.45
2023-02-22T02:01:43.214Z,5.05
2023-02-22T02:04:19.407Z,4.53
2023-02-22T02:06:48.186Z,4.75
2023-02-22T02:09:30.288Z,4.78
2023-02-22T02:12:01.033Z,9.07
2023-02-22T02:14:28.147Z,5.78
2023-02-22T02:16:56.427Z,6.00
2023-02-22T02:19:32.564Z,9.00
2023-02-22T02:22:47.028Z,4.13
2023-02-22T02:25:37.938Z,4.70
2023-02-22T02:28:34.321Z,8.02
2023-02-22T02:31:28.692Z,5.88
2023-02-22T02:34:24.331Z,5.40
2023-02-22T02:37:13.020Z,4.75
2023-02-22T02:39:50.593Z,4.55
2023-02-22T02:42:23.175Z,4.93
2023-02-22T02:44:56.579Z,5.13
2023-02-22T02:47:37.228Z,5.03
2023-02-22T02:50:11.583Z,4.30
2023-02-22T02:52:41.104Z,4.88
2023-02-22T02:55:11.411Z,5.30
2023-02-22T02:57:41.535Z,6.35
2023-02-22T03:00:24.593Z,5.78
2023-02-22T03:03:10.538Z,5.15
2023-02-22T03:06:02.389Z,7.97
2023-02-22T03:08:44.435Z,4.85
2023-02-22T03:11:18.517Z,6.10
2023-02-22T03:13:56.747Z,5.28
2023-02-22T03:16:42.657Z,6.05
2023-02-22T03:19:34.912Z,4.90
2023-02-22T03:22:05.124Z,5.43
2023-02-22T03:24:42.806Z,5.22
2023-02-22T03:27:15.053Z,7.13
2023-02-22T03:29:45.839Z,5.80
2023-02-22T03:32:22.806Z,6.55
2023-02-22T03:35:00.710Z,5.35
2023-02-22T03:37:35.178Z,5.90
2023-02-22T03:40:14.103Z,4.43
2023-02-22T03:42:47.750Z,5.45
2023-02-22T03:45:18.179Z,4.15
2023-02-22T03:47:53.091Z,6.25
2023-02-22T03:50:26.520Z,5.55
2023-02-22T03:52:53.950Z,5.05
2023-02-22T03:55:21.023Z,6.47
2023-02-22T03:57:54.721Z,5.95
2023-02-22T04:00:25.124Z,3.88
2023-02-22T04:02:52.211Z,6.10
2023-02-22T04:05:19.594Z,4.53
2023-02-22T04:07:46.631Z,5.97
2023-02-22T04:10:15.501Z,7.10
2023-02-22T04:12:42.537Z,7.25
2023-02-22T04:15:13.131Z,5.05
2023-02-22T04:17:40.125Z,7.07
2023-02-22T04:20:07.806Z,4.43
2023-02-22T04:22:34.871Z,5.45
2023-02-22T04:25:01.860Z,5.45
2023-02-22T04:27:28.928Z,6.53
2023-02-22T04:29:55.959Z,7.57
2023-02-22T04:32:23.083Z,6.00
2023-02-22T04:34:50.127Z,5.30
2023-02-22T04:37:17.139Z,5.30
2023-02-22T04:39:44.235Z,7.63
2023-02-22T04:42:11.336Z,7.32
2023-02-22T04:44:38.348Z,5.65
2023-02-22T04:47:05.364Z,4.03
2023-02-22T04:49:32.379Z,3.72
2023-02-22T04:51:59.421Z,5.43
2023-02-22T04:54:26.468Z,5.32
2023-02-22T04:56:53.568Z,7.60
2023-02-22T04:59:20.603Z,6.20
2023-02-22T05:01:47.759Z,7.72
2023-02-22T05:04:14.770Z,6.15
2023-02-22T05:06:42.008Z,7.22
2023-02-22T05:09:09.057Z,6.40
2023-02-22T05:11:36.072Z,6.95
2023-02-22T05:14:03.125Z,9.13
2023-02-22T05:16:30.257Z,10.15
2023-02-22T05:18:57.305Z,8.27
2023-02-22T05:21:24.322Z,8.70
2023-02-22T05:23:51.374Z,8.23
2023-02-22T05:26:19.163Z,12.57
2023-02-22T05:28:46.402Z,9.88
2023-02-22T05:31:13.466Z,12.13
2023-02-22T05:33:40.594Z,7.75
2023-02-22T05:36:08.109Z,9.75
2023-02-22T05:38:36.543Z,9.15
2023-02-22T05:41:03.492Z,8.07
2023-02-22T05:43:30.638Z,11.02
2023-02-22T05:45:57.674Z,7.53
2023-02-22T05:48:24.700Z,9.55
2023-02-22T05:50:51.864Z,7.80
2023-02-22T05:53:18.925Z,8.02
2023-02-22T05:55:46.637Z,9.18
2023-02-22T05:58:13.768Z,7.32
2023-02-22T06:00:40.812Z,7.90
2023-02-22T06:03:09.949Z,9.23
2023-02-22T06:05:37.856Z,9.35
2023-02-22T06:08:06.493Z,10.98
2023-02-22T06:10:34.020Z,6.43
2023-02-22T06:13:02.174Z,7.03
2023-02-22T06:15:29.589Z,6.65
2023-02-22T06:17:58.858Z,12.43
2023-02-22T06:20:28.128Z,9.60
2023-02-22T06:22:56.668Z,10.75
2023-02-22T06:25:27.142Z,8.68
2023-02-22T06:27:54.223Z,9.02
2023-02-22T06:30:24.088Z,6.93
2023-02-22T06:32:51.182Z,6.82
2023-02-22T06:35:19.073Z,6.80
2023-02-22T06:37:46.273Z,6.57
2023-02-22T06:40:14.182Z,6.60
2023-02-22T06:42:41.628Z,9.35
2023-02-22T06:45:09.932Z,8.50
2023-02-22T06:47:44.061Z,8.00
2023-02-22T06:50:31.730Z,7.03
2023-02-22T06:52:59.497Z,10.75
2023-02-22T06:55:32.653Z,7.35
2023-02-22T06:58:00.165Z,5.60
2023-02-22T07:00:28.476Z,7.30
2023-02-22T07:02:56.177Z,8.07
2023-02-22T07:05:25.800Z,5.40
2023-02-22T07:07:55.509Z,7.57
2023-02-22T07:10:28.927Z,6.75
2023-02-22T07:12:56.028Z,7.03
2023-02-22T07:15:24.693Z,11.00
2023-02-22T07:17:52.680Z,13.45
2023-02-22T07:20:20.948Z,14.82
2023-02-22T07:22:50.060Z,14.35
2023-02-22T07:25:17.341Z,15.05
2023-02-22T07:27:44.464Z,13.93
2023-02-22T07:30:26.502Z,15.57
2023-02-22T07:32:55.269Z,18.17
2023-02-22T07:35:39.695Z,8.32
2023-02-22T07:38:10.477Z,6.25
2023-02-22T07:40:38.560Z,9.88
2023-02-22T07:43:22.096Z,7.53
2023-02-22T07:45:51.333Z,6.40
2023-02-22T07:48:20.153Z,7.60
2023-02-22T07:50:47.444Z,14.73
2023-02-22T07:53:18.231Z,12.98
2023-02-22T07:55:45.696Z,17.08
2023-02-22T07:58:15.258Z,9.82
2023-02-22T08:00:44.270Z,10.15
2023-02-22T08:03:14.086Z,19.60
2023-02-22T08:05:43.080Z,9.35
2023-02-22T08:08:10.109Z,10.45
2023-02-22T08:10:37.713Z,6.60
2023-02-22T08:13:05.997Z,6.20
2023-02-22T08:15:36.381Z,7.15
2023-02-22T08:18:06.416Z,7.18
2023-02-22T08:20:33.414Z,4.90
2023-02-22T08:23:00.486Z,4.78
2023-02-22T08:25:28.983Z,7.93
2023-02-22T08:28:05.140Z,6.93
2023-02-22T08:30:35.072Z,5.72
2023-02-22T08:33:03.349Z,6.05
2023-02-22T08:35:32.566Z,7.57
2023-02-22T08:38:04.760Z,5.13
2023-02-22T08:40:35.412Z,6.13
2023-02-22T08:43:03.443Z,5.10
2023-02-22T08:45:30.689Z,5.28
2023-02-22T08:47:58.973Z,6.50
2023-02-22T08:50:33.752Z,5.30
2023-02-22T08:53:02.601Z,6.45
2023-02-22T08:55:33.048Z,7.95
2023-02-22T08:58:03.122Z,10.25
2023-02-22T09:00:33.424Z,7.05
2023-02-22T09:03:04.778Z,6.85
2023-02-22T09:05:32.061Z,5.45
2023-02-22T09:08:00.018Z,5.88
2023-02-22T09:10:33.373Z,9.40
2023-02-22T09:13:04.123Z,6.63
2023-02-22T09:15:32.174Z,5.93
2023-02-22T09:17:59.923Z,7.35
2023-02-22T09:20:28.143Z,7.18
2023-02-22T09:22:55.685Z,8.68
2023-02-22T09:25:23.432Z,9.23
2023-02-22T09:27:52.531Z,4.30
2023-02-22T09:30:32.937Z,4.10
2023-02-22T09:33:21.102Z,5.65
2023-02-22T09:35:50.126Z,5.47
2023-02-22T09:38:23.524Z,3.55
2023-02-22T09:40:54.501Z,6.70
2023-02-22T09:43:31.317Z,4.22
2023-02-22T09:46:22.036Z,4.95
2023-02-22T09:49:01.820Z,5.38
2023-02-22T09:51:49.551Z,12.45
2023-02-22T09:54:37.463Z,4.68
2023-02-22T09:57:13.292Z,4.13
2023-02-22T09:59:44.314Z,3.85
2023-02-22T10:02:34.267Z,3.45
2023-02-22T10:05:08.642Z,4.75
2023-02-22T10:07:51.722Z,4.03
2023-02-22T10:10:21.331Z,5.15
2023-02-22T10:13:14.234Z,8.75
2023-02-22T10:15:47.982Z,3.35
2023-02-22T10:18:36.384Z,4.10
2023-02-22T10:21:14.774Z,4.22
2023-02-22T10:24:00.226Z,4.68
2023-02-22T10:26:41.147Z,3.58
2023-02-22T10:29:29.301Z,5.32
2023-02-22T10:32:03.294Z,6.75
2023-02-22T10:34:38.516Z,3.88
2023-02-22T10:37:24.058Z,6.13
2023-02-22T10:39:54.167Z,6.20
2023-02-22T10:42:25.658Z,5.13
2023-02-22T10:44:52.720Z,4.10
2023-02-22T10:47:22.009Z,4.10
2023-02-22T10:50:07.618Z,4.90
2023-02-22T10:52:35.368Z,4.80
2023-02-22T10:55:15.292Z,7.23
2023-02-22T10:57:46.641Z,7.40
2023-02-22T11:00:43.967Z,4.80
2023-02-22T11:03:21.122Z,5.03
2023-02-22T11:05:49.532Z,3.33
2023-02-22T11:08:28.357Z,3.43
2023-02-22T11:11:01.757Z,3.63
2023-02-22T11:13:33.616Z,3.90
2023-02-22T11:16:41.222Z,5.50
2023-02-22T11:19:20.742Z,3.20
2023-02-22T11:21:51.660Z,2.80
2023-02-22T11:24:20.141Z,3.00
2023-02-22T11:26:50.339Z,2.60
2023-02-22T11:29:25.671Z,4.10
2023-02-22T11:31:53.325Z,2.50
2023-02-22T11:34:31.775Z,2.30
2023-02-22T11:37:36.669Z,2.83
2023-02-22T11:40:24.087Z,2.40
2023-02-22T11:43:12.414Z,5.40
2023-02-22T11:45:49.888Z,2.17
2023-02-22T11:48:23.789Z,4.40
2023-02-22T11:51:43.194Z,3.23
2023-02-22T11:54:31.553Z,2.30
2023-02-22T11:57:01.544Z,2.80
2023-02-22T11:59:41.036Z,3.10
2023-02-22T12:02:27.816Z,5.00
2023-02-22T12:04:54.928Z,5.07
2023-02-22T12:07:42.650Z,2.07
2023-02-22T12:10:38.624Z,3.47
2023-02-22T12:13:17.983Z,2.27
2023-02-22T12:16:09.724Z,2.37
2023-02-22T12:19:27.829Z,2.03
2023-02-22T12:22:02.441Z,14.27
2023-02-22T12:24:40.133Z,1.57
2023-02-22T12:27:16.053Z,2.63
2023-02-22T12:29:57.891Z,2.40
2023-02-22T12:32:42.612Z,3.80
2023-02-22T12:35:19.408Z,1.50
2023-02-22T12:37:52.433Z,3.70
2023-02-22T12:40:54.169Z,1.93
2023-02-22T12:43:45.079Z,2.67
2023-02-22T12:46:23.458Z,2.93
2023-02-22T12:49:05.285Z,3.30
2023-02-22T12:51:56.696Z,2.40
2023-02-22T12:54:29.359Z,18.87
2023-02-22T12:57:02.668Z,3.07
2023-02-22T12:59:32.921Z,2.53
2023-02-22T13:02:21.961Z,8.63
2023-02-22T13:04:49.647Z,2.47
2023-02-22T13:07:35.112Z,4.33
2023-02-22T13:10:35.601Z,3.97
2023-02-22T13:13:31.983Z,3.50
2023-02-22T13:16:03.500Z,3.03
2023-02-22T13:18:52.714Z,2.93
2023-02-22T13:21:29.965Z,3.10
2023-02-22T13:24:13.736Z,3.50
2023-02-22T13:27:10.845Z,3.30
2023-02-22T13:29:41.769Z,6.53
2023-02-22T13:32:17.402Z,2.77
2023-02-22T13:35:20.001Z,2.83
2023-02-22T13:37:56.101Z,6.27
2023-02-22T13:40:50.177Z,4.13
2023-02-22T13:43:31.571Z,5.00
2023-02-22T13:46:13.860Z,4.37
2023-02-22T13:48:49.810Z,3.57
2023-02-22T13:51:37.066Z,3.47
2023-02-22T13:54:29.964Z,3.90
2023-02-22T13:56:58.355Z,4.20
2023-02-22T13:59:28.371Z,2.53
2023-02-22T14:01:56.509Z,4.93
2023-02-22T14:04:29.529Z,3.00
2023-02-22T14:07:17.863Z,3.23
2023-02-22T14:09:50.675Z,5.40
2023-02-22T14:12:29.572Z,3.03
2023-02-22T14:15:29.237Z,3.13
2023-02-22T14:17:57.279Z,4.60
2023-02-22T14:20:32.517Z,4.30
2023-02-22T14:23:38.184Z,5.00
2023-02-22T14:26:29.390Z,6.10
2023-02-22T14:29:08.305Z,4.40
2023-02-22T14:31:41.297Z,3.37
2023-02-22T14:34:13.897Z,3.13
2023-02-22T14:36:58.574Z,3.33
2023-02-22T14:39:46.144Z,4.70
2023-02-22T14:42:28.227Z,4.03
2023-02-22T14:44:55.268Z,3.40
2023-02-22T14:47:29.483Z,3.43
2023-02-22T14:50:13.039Z,4.10
2023-02-22T14:52:43.443Z,6.07
2023-02-22T14:55:27.388Z,8.10
2023-02-22T14:58:20.985Z,5.30
2023-02-22T15:00:52.776Z,2.97
2023-02-22T15:03:29.122Z,2.88
2023-02-22T15:05:59.847Z,6.43
2023-02-22T15:08:28.720Z,9.63
2023-02-22T15:10:56.084Z,2.70
2023-02-22T15:13:28.103Z,9.32
2023-02-22T15:16:01.879Z,2.97
2023-02-22T15:18:46.371Z,3.50
2023-02-22T15:21:21.182Z,3.45
2023-02-22T15:23:55.644Z,2.80
2023-02-22T15:26:59.090Z,3.17
2023-02-22T15:29:37.599Z,4.55
2023-02-22T15:32:27.723Z,3.95
2023-02-22T15:34:56.661Z,2.33
2023-02-22T15:37:28.150Z,6.18
2023-02-22T15:40:14.735Z,6.57
2023-02-22T15:42:47.568Z,5.78
2023-02-22T15:45:20.341Z,6.38
2023-02-22T15:47:51.888Z,4.35
2023-02-22T15:50:27.963Z,3.75
2023-02-22T15:53:04.957Z,3.90
2023-02-22T15:55:42.154Z,4.93
2023-02-22T15:58:12.048Z,2.10
2023-02-22T16:00:42.548Z,2.83
2023-02-22T16:03:16.510Z,2.50
2023-02-22T16:05:52.662Z,3.08
2023-02-22T16:08:24.081Z,2.65
2023-02-22T16:11:00.459Z,3.85
2023-02-22T16:13:32.702Z,3.17
2023-02-22T16:16:23.315Z,4.43
2023-02-22T16:18:52.196Z,3.97
2023-02-22T16:21:23.855Z,6.10
2023-02-22T16:24:01.363Z,9.40
2023-02-22T16:26:35.117Z,6.07
2023-02-22T16:29:08.870Z,18.65
2023-02-22T16:31:38.914Z,10.23
2023-02-22T16:34:08.497Z,10.80
2023-02-22T16:36:45.427Z,6.72
2023-02-22T16:39:24.412Z,4.03
2023-02-22T16:41:52.523Z,7.15
2023-02-22T16:44:19.628Z,13.35
2023-02-22T16:46:46.810Z,3.60
2023-02-22T16:49:14.893Z,6.28
2023-02-22T16:51:49.866Z,7.10
2023-02-22T16:54:25.485Z,5.80
2023-02-22T16:56:55.607Z,9.98
2023-02-22T16:59:23.512Z,11.30
2023-02-22T17:01:50.649Z,8.82
2023-02-22T17:04:21.183Z,9.20
2023-02-22T17:06:48.922Z,7.55
2023-02-22T17:09:16.696Z,4.30
2023-02-22T17:11:44.264Z,6.53
2023-02-22T17:14:17.081Z,4.20
2023-02-22T17:16:44.193Z,5.00
2023-02-22T17:19:21.429Z,8.73
2023-02-22T17:21:50.380Z,6.75
2023-02-22T17:24:20.502Z,6.30
2023-02-22T17:26:47.756Z,5.35
2023-02-22T17:29:16.919Z,9.05
2023-02-22T17:31:44.715Z,12.68
2023-02-22T17:34:12.023Z,13.60
2023-02-22T17:36:39.423Z,9.75
2023-02-22T17:39:10.712Z,7.18
2023-02-22T17:41:40.639Z,11.95
2023-02-22T17:44:08.665Z,7.95
2023-02-22T17:46:41.205Z,9.98
2023-02-22T17:49:09.009Z,6.07
2023-02-22T17:51:40.167Z,11.80
2023-02-22T17:54:09.436Z,6.65
2023-02-22T17:56:38.052Z,8.05
2023-02-22T17:59:09.522Z,5.38
2023-02-22T18:01:37.679Z,6.13
2023-02-22T18:04:05.698Z,4.00
2023-02-22T18:06:33.881Z,11.63
2023-02-22T18:09:09.070Z,8.38
2023-02-22T18:11:39.168Z,9.65
2023-02-22T18:14:10.168Z,5.85
2023-02-22T18:16:40.034Z,8.25
2023-02-22T18:19:07.431Z,7.20
2023-02-22T18:21:35.422Z,7.65
2023-02-22T18:24:03.341Z,8.10
2023-02-22T18:26:31.195Z,9.88
2023-02-22T18:29:01.263Z,13.20
2023-02-22T18:31:29.736Z,10.95
2023-02-22T18:33:58.287Z,10.40
2023-02-22T18:36:28.066Z,12.25
2023-02-22T18:38:57.069Z,10.57
2023-02-22T18:41:25.962Z,12.65
2023-02-22T18:43:55.888Z,13.93
2023-02-22T18:46:25.358Z,12.55
2023-02-22T18:48:55.707Z,17.80
2023-02-22T18:51:24.647Z,15.75
2023-02-22T18:53:58.659Z,18.05
2023-02-22T18:56:32.341Z,15.60
2023-02-22T18:59:01.695Z,13.38
2023-02-22T19:01:31.020Z,12.00
2023-02-22T19:03:59.931Z,12.98
2023-02-22T19:06:28.005Z,13.05
2023-02-22T19:08:55.602Z,17.65
2023-02-22T19:11:25.783Z,15.82
2023-02-22T19:14:01.121Z,14.65
2023-02-22T19:16:30.843Z,14.32
2023-02-22T19:18:59.254Z,14.70
2023-02-22T19:21:34.926Z,14.85
2023-02-22T19:24:03.153Z,16.52
2023-02-22T19:26:31.339Z,14.15
2023-02-22T19:29:02.714Z,13.60
2023-02-22T19:31:34.869Z,12.95
2023-02-22T19:34:06.218Z,13.23
2023-02-22T19:36:34.900Z,14.98
2023-02-22T19:39:03.055Z,16.70
2023-02-22T19:41:31.886Z,14.43
2023-02-22T19:44:00.502Z,14.00
2023-02-22T19:46:29.201Z,19.42
2023-02-22T19:48:59.721Z,13.82
2023-02-22T19:51:30.147Z,14.80
2023-02-22T19:53:59.849Z,13.73
2023-02-22T19:56:29.083Z,13.55
2023-02-22T19:58:59.179Z,14.55
2023-02-22T20:01:30.460Z,15.18
2023-02-22T20:04:01.830Z,17.52
2023-02-22T20:06:42.420Z,17.52
2023-02-22T20:09:16.384Z,15.88
2023-02-22T20:11:48.396Z,18.50
2023-02-22T20:14:24.144Z,18.98
2023-02-22T20:16:56.799Z,17.05
2023-02-22T20:19:27.390Z,21.08
2023-02-22T20:21:57.946Z,17.25
2023-02-22T20:24:28.373Z,17.27
2023-02-22T20:26:58.643Z,17.38
2023-02-22T20:29:35.969Z,14.70
2023-02-22T20:32:09.407Z,15.52
2023-02-22T20:34:37.298Z,15.90
2023-02-22T20:37:06.520Z,14.40
2023-02-22T20:39:36.125Z,21.98
2023-02-22T20:42:06.206Z,21.08
2023-02-22T20:44:34.178Z,18.35
2023-02-22T20:47:06.683Z,19.27
2023-02-22T20:49:36.673Z,18.52
2023-02-22T20:52:05.144Z,15.02
2023-02-22T20:54:35.026Z,15.52
2023-02-22T20:57:03.027Z,15.43
2023-02-22T20:59:30.994Z,13.10
2023-02-22T21:01:59.124Z,16.25
2023-02-22T21:04:33.519Z,15.68
2023-02-22T21:07:06.621Z,13.73
2023-02-22T21:09:34.625Z,14.63
2023-02-22T21:12:02.359Z,11.63
2023-02-22T21:14:33.059Z,13.82
2023-02-22T21:17:05.467Z,15.27
2023-02-22T21:19:33.637Z,13.80
2023-02-22T21:22:06.911Z,14.88
2023-02-22T21:24:36.804Z,16.38
2023-02-22T21:27:07.462Z,18.23
2023-02-22T21:29:36.185Z,18.20
2023-02-22T21:32:04.876Z,15.43
2023-02-22T21:34:35.943Z,12.30
2023-02-22T21:37:08.896Z,15.63
2023-02-22T21:39:36.748Z,13.85
2023-02-22T21:42:08.371Z,15.77
2023-02-22T21:44:36.462Z,17.83
2023-02-22T21:47:03.723Z,11.48
2023-02-22T21:49:31.056Z,11.85
2023-02-22T21:51:58.080Z,11.50
2023-02-22T21:54:25.704Z,11.88
2023-02-22T21:56:54.703Z,12.38
2023-02-22T21:59:25.396Z,14.27
2023-02-22T22:01:56.572Z,14.65
2023-02-22T22:04:32.196Z,16.35
2023-02-22T22:07:00.669Z,14.10
2023-02-22T22:09:33.163Z,12.25
2023-02-22T22:12:05.311Z,13.05
2023-02-22T22:14:34.536Z,15.38
2023-02-22T22:17:03.505Z,14.10
2023-02-22T22:19:34.284Z,14.38
2023-02-22T22:22:01.620Z,13.93
2023-02-22T22:24:32.171Z,13.60
2023-02-22T22:27:03.853Z,13.65
2023-02-22T22:29:32.652Z,14.32
2023-02-22T22:32:00.095Z,12.27
2023-02-22T22:34:29.810Z,14.18
2023-02-22T22:36:58.236Z,12.05
2023-02-22T22:39:27.027Z,10.95
2023-02-22T22:41:54.083Z,14.77
2023-02-22T22:44:24.342Z,13.90
2023-02-22T22:46:54.904Z,11.40
2023-02-22T22:49:24.376Z,15.10
2023-02-22T22:51:51.417Z,13.20
2023-02-22T22:54:18.516Z,12.98
2023-02-22T22:56:45.569Z,15.13
2023-02-22T22:59:13.632Z,12.05
2023-02-22T23:01:44.837Z,14.88
2023-02-22T23:04:16.470Z,13.85
2023-02-22T23:06:50.698Z,12.75
2023-02-22T23:09:23.236Z,11.55
2023-02-22T23:11:55.532Z,12.90
2023-02-22T23:14:31.330Z,12.95
2023-02-22T23:17:03.538Z,15.85
2023-02-22T23:19:35.284Z,12.77
2023-02-22T23:22:05.411Z,11.82
2023-02-22T23:24:37.960Z,15.18
2023-02-22T23:27:10.986Z,16.35
2023-02-22T23:29:41.354Z,12.52
2023-02-22T23:32:10.417Z,13.38
2023-02-22T23:34:41.298Z,13.05
2023-02-22T23:37:10.762Z,11.88
2023-02-22T23:39:38.186Z,14.75
2023-02-22T23:42:05.284Z,11.98
2023-02-22T23:44:32.631Z,14.43
2023-02-22T23:46:59.756Z,12.57
2023-02-22T23:49:35.992Z,16.95
2023-02-22T23:52:04.539Z,16.33
2023-02-22T23:54:36.488Z,14.63
2023-02-22T23:57:05.017Z,14.10
2023-02-22T23:59:33.498Z,11.18
